createdAt,value
2023-06-19T00:01:20.872Z,30.17
2023-06-19T00:03:48.617Z,29.58
2023-06-19T00:06:16.362Z,29.83
2023-06-19T00:09:02.148Z,29.93
2023-06-19T00:11:29.908Z,29.96
2023-06-19T00:13:58.932Z,29.82
2023-06-19T00:16:27.186Z,29.52
2023-06-19T00:18:56.730Z,29.04
2023-06-19T00:21:25.501Z,29.20
2023-06-19T00:23:53.730Z,29.23
2023-06-19T00:26:23.507Z,28.92
2023-06-19T00:28:51.375Z,28.16
2023-06-19T00:31:20.716Z,29.44
2023-06-19T00:33:49.210Z,28.64
2023-06-19T00:36:21.109Z,28.60
2023-06-19T00:38:49.444Z,28.60
2023-06-19T00:41:17.902Z,28.55
2023-06-19T00:43:46.210Z,29.03
2023-06-19T00:46:14.339Z,28.44
2023-06-19T00:48:43.589Z,29.04
2023-06-19T00:51:11.524Z,28.10
2023-06-19T00:53:39.220Z,28.13
2023-06-19T00:56:07.677Z,27.88
2023-06-19T00:58:36.254Z,28.28
2023-06-19T01:01:09.377Z,28.54
2023-06-19T01:03:38.560Z,28.14
2023-06-19T01:06:12.837Z,29.30
2023-06-19T01:08:47.858Z,28.77
2023-06-19T01:11:26.853Z,28.00
2023-06-19T01:13:59.340Z,28.10
2023-06-19T01:16:27.779Z,27.60
2023-06-19T01:18:55.694Z,28.09
2023-06-19T01:21:25.009Z,28.47
2023-06-19T01:23:54.113Z,28.28
2023-06-19T01:26:27.507Z,28.26
2023-06-19T01:28:56.558Z,28.02
2023-06-19T01:31:27.696Z,28.33
2023-06-19T01:33:56.371Z,28.59
2023-06-19T01:36:26.118Z,28.11
2023-06-19T01:38:57.063Z,28.26
2023-06-19T01:41:25.079Z,28.04
2023-06-19T01:43:53.696Z,28.10
2023-06-19T01:46:21.844Z,27.81
2023-06-19T01:48:49.641Z,28.27
2023-06-19T01:51:18.243Z,28.04
2023-06-19T01:53:45.909Z,28.01
2023-06-19T01:56:15.026Z,28.15
2023-06-19T01:58:42.718Z,28.62
2023-06-19T02:01:10.410Z,28.78
2023-06-19T02:03:38.210Z,28.17
2023-06-19T02:06:06.081Z,28.83
2023-06-19T02:11:20.800Z,29.03
2023-06-19T02:13:48.470Z,29.15
2023-06-19T02:16:16.664Z,28.88
2023-06-19T02:18:44.401Z,28.45
2023-06-19T02:21:12.168Z,27.97
2023-06-19T02:23:39.892Z,28.36
2023-06-19T02:26:07.578Z,28.33
2023-06-19T02:28:36.624Z,27.87
2023-06-19T02:31:04.416Z,28.59
2023-06-19T02:33:33.533Z,28.62
2023-06-19T02:36:01.307Z,27.72
2023-06-19T02:38:30.605Z,27.16
2023-06-19T02:41:01.592Z,27.66
2023-06-19T02:43:29.319Z,27.81
2023-06-19T02:45:58.553Z,27.45
2023-06-19T02:48:26.521Z,27.76
2023-06-19T02:50:54.190Z,27.45
2023-06-19T02:53:21.864Z,27.23
2023-06-19T02:55:49.550Z,27.26
2023-06-19T02:58:17.245Z,27.04
2023-06-19T03:00:45.030Z,26.77
2023-06-19T03:03:14.354Z,27.07
2023-06-19T03:05:42.811Z,27.35
2023-06-19T03:08:10.551Z,27.19
2023-06-19T03:10:38.345Z,27.42
2023-06-19T03:13:06.030Z,26.63
2023-06-19T03:15:33.774Z,27.24
2023-06-19T03:18:04.449Z,27.22
2023-06-19T03:20:33.879Z,27.49
2023-06-19T03:23:01.577Z,27.69
2023-06-19T03:25:34.667Z,28.26
2023-06-19T03:28:02.632Z,27.61
2023-06-19T03:30:30.328Z,27.59
2023-06-19T03:32:58.069Z,26.80
2023-06-19T03:35:25.772Z,27.60
2023-06-19T03:37:55.229Z,26.68
2023-06-19T03:40:23.849Z,27.29
2023-06-19T03:42:51.782Z,26.75
2023-06-19T03:45:19.470Z,26.68
2023-06-19T03:47:47.186Z,27.51
2023-06-19T03:50:21.393Z,27.64
2023-06-19T03:52:50.033Z,27.41
2023-06-19T03:55:19.818Z,27.66
2023-06-19T03:57:47.580Z,26.74
2023-06-19T04:00:16.741Z,27.38
2023-06-19T04:02:44.497Z,27.10
2023-06-19T04:05:12.221Z,27.02
2023-06-19T04:07:39.941Z,27.33
2023-06-19T04:10:09.233Z,27.86
2023-06-19T04:12:38.333Z,27.31
2023-06-19T04:15:07.116Z,27.63
2023-06-19T04:17:34.894Z,27.92
2023-06-19T04:20:02.642Z,28.29
2023-06-19T04:22:30.322Z,27.56
2023-06-19T04:24:58.010Z,28.06
2023-06-19T04:27:25.692Z,28.42
2023-06-19T04:29:54.835Z,28.11
2023-06-19T04:32:23.045Z,28.18
2023-06-19T04:34:50.791Z,26.28
2023-06-19T04:37:20.202Z,28.05
2023-06-19T04:39:48.120Z,28.67
2023-06-19T04:42:20.634Z,28.14
2023-06-19T04:44:48.460Z,27.38
2023-06-19T04:47:19.750Z,27.75
2023-06-19T04:49:47.768Z,27.81
2023-06-19T04:52:15.591Z,27.81
2023-06-19T04:54:43.260Z,28.33
2023-06-19T04:57:30.933Z,27.45
2023-06-19T04:59:58.974Z,27.86
2023-06-19T05:02:28.196Z,27.16
2023-06-19T05:04:55.891Z,26.58
2023-06-19T05:07:23.901Z,27.61
2023-06-19T05:09:51.577Z,27.92
2023-06-19T05:12:19.307Z,28.55
2023-06-19T05:14:46.996Z,27.91
2023-06-19T05:17:14.801Z,27.25
2023-06-19T05:19:44.256Z,27.16
2023-06-19T05:22:11.913Z,27.10
2023-06-19T05:24:39.931Z,27.96
2023-06-19T05:27:08.336Z,26.56
2023-06-19T05:29:36.150Z,28.18
2023-06-19T05:32:04.202Z,26.89
2023-06-19T05:34:31.933Z,27.70
2023-06-19T05:37:04.627Z,26.41
2023-06-19T05:39:32.339Z,28.22
2023-06-19T05:42:00.209Z,26.79
2023-06-19T05:44:28.126Z,27.98
2023-06-19T05:47:00.603Z,28.46
2023-06-19T05:49:28.313Z,25.78
2023-06-19T05:52:00.097Z,27.93
2023-06-19T05:54:29.363Z,27.42
2023-06-19T05:56:57.035Z,26.95
2023-06-19T05:59:27.744Z,28.33
2023-06-19T06:01:56.797Z,27.82
2023-06-19T06:04:24.630Z,27.04
2023-06-19T06:06:52.542Z,28.30
2023-06-19T06:09:21.639Z,28.71
2023-06-19T06:11:50.863Z,28.12
2023-06-19T06:14:19.132Z,28.82
2023-06-19T06:16:46.961Z,29.36
2023-06-19T06:19:15.158Z,28.32
2023-06-19T06:21:42.909Z,27.37
2023-06-19T06:24:10.679Z,28.30
2023-06-19T06:26:38.914Z,28.98
2023-06-19T06:29:08.076Z,28.83
2023-06-19T06:31:36.005Z,29.05
2023-06-19T06:34:03.733Z,26.03
2023-06-19T06:39:03.882Z,25.67
2023-06-19T06:41:31.926Z,27.44
2023-06-19T06:43:59.816Z,26.67
2023-06-19T06:46:29.246Z,27.02
2023-06-19T06:48:56.979Z,26.77
2023-06-19T06:51:24.781Z,26.06
2023-06-19T06:53:52.919Z,27.39
2023-06-19T06:56:20.994Z,26.67
2023-06-19T06:58:49.173Z,28.47
2023-06-19T07:01:17.154Z,29.12
2023-06-19T07:03:46.525Z,27.60
2023-06-19T07:06:14.356Z,28.08
2023-06-19T07:08:42.531Z,25.70
2023-06-19T07:11:10.268Z,27.05
2023-06-19T07:13:37.933Z,26.03
2023-06-19T07:16:06.128Z,28.94
2023-06-19T07:18:34.564Z,29.79
2023-06-19T07:21:03.717Z,29.75
2023-06-19T07:23:31.402Z,29.74
2023-06-19T07:26:00.259Z,29.71
2023-06-19T07:28:28.284Z,29.01
2023-06-19T07:30:55.955Z,27.93
2023-06-19T07:33:23.569Z,28.87
2023-06-19T07:35:51.437Z,29.24
2023-06-19T07:38:20.549Z,27.79
2023-06-19T07:40:48.392Z,26.56
2023-06-19T07:43:16.385Z,28.99
2023-06-19T07:45:44.167Z,29.61
2023-06-19T07:48:11.936Z,30.22
2023-06-19T07:50:39.600Z,30.24
2023-06-19T07:53:07.505Z,29.01
2023-06-19T07:55:36.802Z,27.91
2023-06-19T07:58:04.556Z,27.23
2023-06-19T08:00:49.062Z,27.77
2023-06-19T08:03:16.808Z,27.35
2023-06-19T08:05:44.774Z,27.78
2023-06-19T08:08:15.228Z,30.13
2023-06-19T08:10:44.340Z,30.11
2023-06-19T08:13:12.757Z,30.74
2023-06-19T08:15:40.382Z,28.19
2023-06-19T08:18:08.078Z,28.71
2023-06-19T08:20:35.735Z,30.59
2023-06-19T08:23:05.168Z,30.48
2023-06-19T08:25:34.249Z,28.88
2023-06-19T08:28:03.921Z,29.56
2023-06-19T08:30:31.795Z,29.47
2023-06-19T08:32:59.412Z,29.34
2023-06-19T08:35:27.222Z,29.10
2023-06-19T08:37:57.305Z,28.16
2023-06-19T08:40:25.749Z,28.56
2023-06-19T08:42:54.694Z,27.98
2023-06-19T08:45:24.084Z,27.55
2023-06-19T08:47:52.102Z,29.60
2023-06-19T08:50:21.716Z,30.26
2023-06-19T08:52:49.598Z,27.64
2023-06-19T08:55:17.340Z,30.06
2023-06-19T08:57:45.225Z,28.20
2023-06-19T09:00:13.892Z,29.61
2023-06-19T09:02:44.459Z,30.69
2023-06-19T09:05:14.545Z,29.01
2023-06-19T09:07:42.493Z,30.00
2023-06-19T09:10:17.023Z,30.56
2023-06-19T09:12:45.568Z,29.27
2023-06-19T09:15:14.245Z,28.81
2023-06-19T09:17:43.356Z,30.91
2023-06-19T09:20:12.808Z,31.14
2023-06-19T09:22:40.639Z,30.24
2023-06-19T09:25:11.349Z,30.31
2023-06-19T09:27:39.110Z,29.94
2023-06-19T09:30:09.137Z,29.58
2023-06-19T09:32:37.564Z,30.79
2023-06-19T09:35:07.565Z,32.38
2023-06-19T09:37:35.850Z,31.68
2023-06-19T09:40:10.969Z,31.61
2023-06-19T09:42:43.486Z,27.63
2023-06-19T09:45:13.215Z,30.91
2023-06-19T09:47:42.060Z,31.34
2023-06-19T09:50:14.534Z,30.54
2023-06-19T09:52:42.591Z,31.07
2023-06-19T09:55:13.898Z,31.54
2023-06-19T09:57:42.839Z,29.22
2023-06-19T10:00:13.668Z,31.05
2023-06-19T10:02:51.306Z,30.47
2023-06-19T10:05:31.447Z,33.17
2023-06-19T10:08:01.117Z,31.75
2023-06-19T10:10:33.154Z,29.65
2023-06-19T10:13:13.950Z,30.04
2023-06-19T10:15:43.520Z,30.09
2023-06-19T10:18:17.318Z,29.73
2023-06-19T10:20:47.768Z,31.22
2023-06-19T10:23:20.227Z,31.90
2023-06-19T10:25:50.338Z,32.15
2023-06-19T10:28:19.321Z,32.55
2023-06-19T10:30:47.388Z,31.47
2023-06-19T10:33:15.068Z,31.85
2023-06-19T10:35:43.170Z,29.56
2023-06-19T10:38:12.506Z,31.18
2023-06-19T10:40:40.534Z,30.63
2023-06-19T10:43:08.253Z,30.45
2023-06-19T10:45:36.097Z,29.60
2023-06-19T10:48:05.234Z,29.19
2023-06-19T10:50:37.189Z,29.24
2023-06-19T10:53:05.109Z,31.46
2023-06-19T10:55:36.456Z,31.43
2023-06-19T10:58:04.532Z,31.47
2023-06-19T11:00:34.960Z,31.27
2023-06-19T11:03:02.730Z,32.16
2023-06-19T11:05:31.000Z,30.87
2023-06-19T11:07:59.999Z,30.34
2023-06-19T11:10:29.292Z,31.85
2023-06-19T11:12:59.896Z,30.07
2023-06-19T11:15:31.824Z,31.69
2023-06-19T11:18:00.147Z,31.00
2023-06-19T11:20:28.006Z,30.55
2023-06-19T11:23:01.992Z,31.71
2023-06-19T11:25:37.927Z,30.89
2023-06-19T11:28:08.089Z,32.85
2023-06-19T11:31:00.486Z,33.10
2023-06-19T11:33:28.355Z,30.26
2023-06-19T11:35:56.783Z,30.79
2023-06-19T11:38:25.802Z,30.72
2023-06-19T11:40:54.301Z,31.47
2023-06-19T11:43:30.876Z,32.18
2023-06-19T11:46:04.010Z,30.30
2023-06-19T11:48:31.815Z,31.24
2023-06-19T11:50:59.918Z,30.40
2023-06-19T11:53:27.675Z,32.13
2023-06-19T11:55:55.544Z,32.15
2023-06-19T11:58:23.841Z,31.79
2023-06-19T12:00:53.268Z,34.32
2023-06-19T12:03:21.231Z,33.39
2023-06-19T12:05:49.160Z,32.53
2023-06-19T12:08:17.094Z,34.37
2023-06-19T12:10:44.968Z,31.62
2023-06-19T12:13:18.757Z,32.70
2023-06-19T12:15:47.089Z,32.87
2023-06-19T12:18:17.892Z,32.09
2023-06-19T12:20:45.960Z,32.26
2023-06-19T12:23:23.108Z,35.38
2023-06-19T12:25:51.265Z,35.60
2023-06-19T12:28:19.818Z,33.20
2023-06-19T12:30:49.338Z,32.94
2023-06-19T12:33:19.308Z,31.82
2023-06-19T12:35:47.498Z,33.66
2023-06-19T12:38:15.439Z,33.51
2023-06-19T12:40:43.771Z,31.48
2023-06-19T12:43:11.451Z,31.65
2023-06-19T12:45:39.079Z,31.06
2023-06-19T12:48:07.173Z,32.00
2023-06-19T12:50:36.639Z,31.51
2023-06-19T12:53:04.766Z,31.70
2023-06-19T12:55:32.604Z,31.52
2023-06-19T12:58:00.286Z,31.75
2023-06-19T13:00:27.933Z,31.53
2023-06-19T13:02:55.781Z,31.99
2023-06-19T13:05:23.836Z,31.93
2023-06-19T13:07:53.044Z,34.26
2023-06-19T13:10:20.794Z,36.42
2023-06-19T13:12:48.783Z,34.44
2023-06-19T13:15:16.821Z,32.08
2023-06-19T13:17:44.508Z,34.44
2023-06-19T13:20:12.647Z,35.33
2023-06-19T13:22:56.740Z,33.82
2023-06-19T13:25:24.907Z,33.47
2023-06-19T13:27:52.710Z,34.41
2023-06-19T13:30:20.731Z,33.29
2023-06-19T13:32:48.622Z,33.25
2023-06-19T13:35:16.467Z,33.71
2023-06-19T13:37:44.708Z,33.56
2023-06-19T13:40:14.641Z,34.68
2023-06-19T13:42:42.312Z,37.31
2023-06-19T13:45:10.536Z,35.58
2023-06-19T13:47:39.615Z,39.29
2023-06-19T13:50:08.757Z,39.45
2023-06-19T13:52:37.459Z,41.45
2023-06-19T13:55:05.991Z,41.20
2023-06-19T13:57:35.114Z,40.06
2023-06-19T14:00:04.208Z,36.88
2023-06-19T14:02:32.228Z,36.35
2023-06-19T14:05:01.064Z,38.53
2023-06-19T14:07:28.912Z,36.76
2023-06-19T14:09:56.645Z,36.91
2023-06-19T14:12:24.320Z,37.13
2023-06-19T14:14:54.019Z,37.69
2023-06-19T14:17:22.623Z,37.70
2023-06-19T14:19:52.105Z,39.42
2023-06-19T14:22:20.252Z,41.62
2023-06-19T14:24:48.368Z,41.81
2023-06-19T14:27:16.180Z,39.67
2023-06-19T14:29:43.848Z,38.52
2023-06-19T14:32:13.380Z,42.74
2023-06-19T14:34:41.185Z,36.61
2023-06-19T14:37:09.303Z,37.04
2023-06-19T14:39:37.231Z,37.02
2023-06-19T14:42:05.283Z,35.03
2023-06-19T14:44:35.207Z,36.00
2023-06-19T14:47:02.938Z,39.10
2023-06-19T14:49:32.314Z,35.73
2023-06-19T14:52:00.012Z,38.84
2023-06-19T14:54:27.792Z,39.52
2023-06-19T14:56:55.451Z,42.76
2023-06-19T14:59:23.298Z,39.87
2023-06-19T15:01:51.754Z,38.06
2023-06-19T15:04:19.865Z,38.08
2023-06-19T15:06:49.035Z,43.32
2023-06-19T15:09:16.758Z,42.44
2023-06-19T15:11:44.408Z,35.25
2023-06-19T15:14:12.311Z,39.32
2023-06-19T15:16:40.288Z,43.16
2023-06-19T15:19:08.318Z,39.68
2023-06-19T15:21:39.428Z,40.80
2023-06-19T15:24:09.676Z,38.47
2023-06-19T15:26:58.229Z,38.02
2023-06-19T15:29:26.147Z,40.19
2023-06-19T15:31:54.094Z,41.21
2023-06-19T15:34:21.751Z,43.25
2023-06-19T15:36:49.743Z,42.75
2023-06-19T15:39:18.784Z,43.40
2023-06-19T15:41:47.497Z,44.16
2023-06-19T15:44:16.000Z,43.81
2023-06-19T15:46:44.053Z,40.06
2023-06-19T15:49:13.875Z,39.38
2023-06-19T15:51:41.771Z,38.83
2023-06-19T15:54:09.580Z,37.71
2023-06-19T15:56:40.457Z,37.59
2023-06-19T15:59:08.153Z,39.21
2023-06-19T16:01:35.892Z,41.03
2023-06-19T16:04:03.908Z,39.16
2023-06-19T16:06:31.764Z,38.19
2023-06-19T16:08:59.465Z,41.68
2023-06-19T16:11:27.266Z,41.69
2023-06-19T16:13:56.598Z,44.45
2023-06-19T16:16:24.399Z,44.75
2023-06-19T16:18:52.145Z,46.25
2023-06-19T16:21:19.847Z,43.90
2023-06-19T16:23:47.658Z,42.33
2023-06-19T16:26:16.023Z,39.06
2023-06-19T16:28:43.774Z,37.01
2023-06-19T16:31:13.229Z,37.52
2023-06-19T16:33:41.082Z,40.60
2023-06-19T16:36:11.248Z,42.88
2023-06-19T16:38:39.382Z,36.57
2023-06-19T16:41:07.433Z,35.77
2023-06-19T16:43:35.485Z,34.47
2023-06-19T16:46:03.573Z,38.44
2023-06-19T16:48:32.914Z,37.39
2023-06-19T16:51:01.062Z,40.26
2023-06-19T16:53:28.944Z,37.17
2023-06-19T16:55:57.769Z,38.83
2023-06-19T16:58:25.573Z,41.92
2023-06-19T17:00:53.624Z,42.21
2023-06-19T17:03:21.865Z,41.53
2023-06-19T17:08:48.882Z,40.17
2023-06-19T17:11:20.515Z,41.64
2023-06-19T17:13:49.079Z,39.92
2023-06-19T17:16:17.008Z,40.12
2023-06-19T17:18:44.957Z,40.55
2023-06-19T17:21:14.474Z,38.87
2023-06-19T17:23:42.228Z,38.46
2023-06-19T17:26:09.944Z,38.00
2023-06-19T17:28:37.882Z,39.34
2023-06-19T17:31:08.425Z,38.03
2023-06-19T17:33:36.578Z,37.63
2023-06-19T17:36:05.247Z,36.80
2023-06-19T17:38:35.633Z,35.42
2023-06-19T17:41:03.701Z,36.24
2023-06-19T17:43:31.395Z,37.03
2023-06-19T17:45:59.159Z,35.00
2023-06-19T17:48:27.203Z,37.29
2023-06-19T17:50:55.432Z,36.88
2023-06-19T17:53:23.506Z,35.20
2023-06-19T17:55:53.282Z,36.00
2023-06-19T17:58:22.642Z,34.66
2023-06-19T18:00:50.368Z,34.48
2023-06-19T18:03:18.199Z,34.33
2023-06-19T18:05:46.278Z,34.65
2023-06-19T18:08:14.043Z,34.69
2023-06-19T18:10:42.382Z,35.70
2023-06-19T18:13:11.628Z,35.50
2023-06-19T18:24:39.270Z,32.58
2023-06-19T18:27:07.807Z,33.02
2023-06-19T18:29:37.148Z,33.09
2023-06-19T18:32:05.393Z,33.03
2023-06-19T18:34:33.346Z,33.02
2023-06-19T18:37:01.304Z,32.16
2023-06-19T18:39:29.107Z,33.05
2023-06-19T18:41:56.813Z,31.58
2023-06-19T18:44:24.526Z,31.69
2023-06-19T18:46:53.591Z,31.52
2023-06-19T18:49:21.563Z,32.88
2023-06-19T18:51:49.262Z,31.61
2023-06-19T18:54:17.004Z,31.59
2023-06-19T18:56:44.767Z,32.03
2023-06-19T18:59:12.519Z,30.86
2023-06-19T19:01:40.646Z,31.29
2023-06-19T19:04:09.753Z,30.45
2023-06-19T19:06:37.702Z,30.43
2023-06-19T19:09:05.400Z,30.04
2023-06-19T19:11:33.516Z,29.73
2023-06-19T19:14:01.215Z,29.85
2023-06-19T19:16:29.070Z,30.08
2023-06-19T19:18:56.922Z,29.72
2023-06-19T19:21:25.981Z,29.19
2023-06-19T19:23:53.668Z,29.18
2023-06-19T19:26:21.477Z,29.31
2023-06-19T19:28:49.154Z,28.88
2023-06-19T19:31:16.875Z,28.52
2023-06-19T19:33:44.561Z,28.53
2023-06-19T19:36:12.417Z,28.01
2023-06-19T19:38:41.495Z,27.84
2023-06-19T19:41:09.566Z,27.70
2023-06-19T19:43:37.778Z,27.59
2023-06-19T19:46:05.639Z,27.24
2023-06-19T19:48:33.488Z,28.04
2023-06-19T19:51:01.185Z,27.47
2023-06-19T19:53:29.282Z,28.02
2023-06-19T19:55:58.486Z,27.70
2023-06-19T19:58:27.145Z,27.34
2023-06-19T20:00:54.922Z,27.82
2023-06-19T20:03:22.936Z,27.20
2023-06-19T20:05:50.735Z,26.85
2023-06-19T20:08:18.425Z,27.13
2023-06-19T20:10:46.668Z,27.12
2023-06-19T20:13:15.962Z,26.88
2023-06-19T20:15:43.687Z,26.40
2023-06-19T20:18:11.405Z,26.67
2023-06-19T20:20:39.154Z,27.29
2023-06-19T20:23:07.606Z,26.79
2023-06-19T20:25:36.520Z,27.06
2023-06-19T20:28:08.628Z,27.72
2023-06-19T20:30:56.599Z,27.41
2023-06-19T20:33:24.448Z,26.90
2023-06-19T20:35:52.538Z,26.89
2023-06-19T20:38:21.394Z,26.10
2023-06-19T20:40:49.668Z,27.15
2023-06-19T20:43:17.462Z,27.32
2023-06-19T20:45:45.134Z,27.23
2023-06-19T20:48:14.362Z,26.38
2023-06-19T20:50:42.071Z,26.36
2023-06-19T20:53:09.833Z,26.32
2023-06-19T20:55:37.732Z,26.42
2023-06-19T20:58:06.046Z,26.75
2023-06-19T21:00:34.462Z,26.51
2023-06-19T21:03:04.179Z,25.16
2023-06-19T21:05:33.493Z,26.31
2023-06-19T21:08:01.393Z,26.08
2023-06-19T21:10:29.565Z,26.80
2023-06-19T21:13:04.468Z,26.33
2023-06-19T21:15:38.545Z,26.07
2023-06-19T21:18:06.300Z,25.70
2023-06-19T21:20:35.431Z,25.93
2023-06-19T21:23:03.088Z,25.96
2023-06-19T21:25:30.944Z,26.02
2023-06-19T21:27:59.439Z,25.52
2023-06-19T21:30:27.356Z,25.95
2023-06-19T21:32:55.536Z,25.65
2023-06-19T21:35:23.398Z,25.47
2023-06-19T21:37:52.402Z,25.80
2023-06-19T21:40:20.002Z,26.03
2023-06-19T21:42:48.200Z,25.94
2023-06-19T21:45:19.150Z,25.76
2023-06-19T21:47:49.055Z,25.41
2023-06-19T21:50:20.742Z,25.17
2023-06-19T21:52:49.861Z,25.12
2023-06-19T21:55:19.188Z,25.48
2023-06-19T21:57:59.396Z,25.09
2023-06-19T22:00:29.432Z,25.28
2023-06-19T22:02:57.959Z,25.14
2023-06-19T22:05:26.245Z,25.77
2023-06-19T22:07:54.500Z,25.71
2023-06-19T22:10:24.777Z,26.19
2023-06-19T22:12:53.042Z,25.55
2023-06-19T22:15:24.418Z,25.62
2023-06-19T22:17:52.454Z,26.13
2023-06-19T22:20:20.426Z,26.34
2023-06-19T22:22:48.790Z,26.31
2023-06-19T22:25:17.497Z,26.27
2023-06-19T22:30:22.166Z,26.40
2023-06-19T22:32:49.980Z,26.43
2023-06-19T22:35:17.657Z,26.35
2023-06-19T22:37:45.777Z,26.28
2023-06-19T22:40:14.453Z,25.86
2023-06-19T22:42:42.667Z,26.11
2023-06-19T22:45:11.808Z,25.90
2023-06-19T22:47:41.555Z,26.45
2023-06-19T22:50:10.884Z,26.33
2023-06-19T22:52:38.894Z,26.19
2023-06-19T22:55:07.267Z,26.17
2023-06-19T22:57:36.237Z,26.33
2023-06-19T23:00:08.852Z,26.35
2023-06-19T23:02:36.627Z,25.77
2023-06-19T23:05:06.570Z,26.01
2023-06-19T23:07:34.317Z,26.31
2023-06-19T23:10:03.412Z,26.13
2023-06-19T23:12:31.070Z,25.71
2023-06-19T23:14:58.794Z,25.75
2023-06-19T23:17:26.638Z,26.27
2023-06-19T23:19:59.401Z,25.54
2023-06-19T23:22:28.777Z,25.77
2023-06-19T23:24:56.467Z,25.96
2023-06-19T23:27:24.174Z,25.97
2023-06-19T23:29:52.748Z,25.66
2023-06-19T23:32:21.724Z,26.03
2023-06-19T23:34:50.037Z,25.88
2023-06-19T23:37:17.711Z,25.78
2023-06-19T23:39:46.917Z,25.44
2023-06-19T23:42:14.625Z,25.31
2023-06-19T23:44:42.300Z,25.73
2023-06-19T23:47:09.963Z,25.78
2023-06-19T23:49:39.257Z,24.79
2023-06-19T23:52:07.787Z,24.96
2023-06-19T23:54:35.442Z,25.23
2023-06-19T23:57:05.012Z,24.85
2023-06-19T23:59:32.654Z,24.56
